sensor_id;sensor_type;location;lat;lon;timestamp;P1;durP1;ratioP1;P2;durP2;ratioP2
69822;SDS011;57119;52.516;13.508;2022-11-18T00:03:40;30.35;;;14.05;;
69822;SDS011;57119;52.516;13.508;2022-11-18T00:06:07;30.40;;;14.35;;
69822;SDS011;57119;52.516;13.508;2022-11-18T00:08:35;31.02;;;13.98;;
69822;SDS011;57119;52.516;13.508;2022-11-18T00:11:07;28.80;;;12.90;;
69822;SDS011;57119;52.516;13.508;2022-11-18T00:13:35;29.52;;;14.05;;
69822;SDS011;57119;52.516;13.508;2022-11-18T00:16:20;28.13;;;14.10;;
69822;SDS011;57119;52.516;13.508;2022-11-18T00:18:46;26.52;;;12.85;;
69822;SDS011;57119;52.516;13.508;2022-11-18T00:21:17;31.15;;;13.25;;
69822;SDS011;57119;52.516;13.508;2022-11-18T00:23:43;26.13;;;14.00;;
69822;SDS011;57119;52.516;13.508;2022-11-18T00:26:10;26.93;;;13.03;;
69822;SDS011;57119;52.516;13.508;2022-11-18T00:28:37;27.13;;;14.57;;
69822;SDS011;57119;52.516;13.508;2022-11-18T00:31:04;28.08;;;13.10;;
69822;SDS011;57119;52.516;13.508;2022-11-18T00:33:32;24.45;;;12.77;;
69822;SDS011;57119;52.516;13.508;2022-11-18T00:35:58;28.13;;;13.17;;
69822;SDS011;57119;52.516;13.508;2022-11-18T00:38:24;26.23;;;13.43;;
69822;SDS011;57119;52.516;13.508;2022-11-18T00:41:06;26.90;;;12.82;;
69822;SDS011;57119;52.516;13.508;2022-11-18T00:43:34;26.77;;;13.27;;
69822;SDS011;57119;52.516;13.508;2022-11-18T00:46:00;25.27;;;12.45;;
69822;SDS011;57119;52.516;13.508;2022-11-18T00:48:26;25.05;;;12.52;;
69822;SDS011;57119;52.516;13.508;2022-11-18T00:50:52;25.90;;;13.02;;
69822;SDS011;57119;52.516;13.508;2022-11-18T00:53:20;27.40;;;12.95;;
69822;SDS011;57119;52.516;13.508;2022-11-18T00:55:48;24.92;;;12.85;;
69822;SDS011;57119;52.516;13.508;2022-11-18T00:58:13;27.33;;;14.02;;
69822;SDS011;57119;52.516;13.508;2022-11-18T01:00:43;24.03;;;12.47;;
69822;SDS011;57119;52.516;13.508;2022-11-18T01:03:09;23.13;;;12.18;;
69822;SDS011;57119;52.516;13.508;2022-11-18T01:05:36;25.45;;;12.63;;
69822;SDS011;57119;52.516;13.508;2022-11-18T01:08:02;24.60;;;12.52;;
69822;SDS011;57119;52.516;13.508;2022-11-18T01:10:27;25.80;;;12.27;;
69822;SDS011;57119;52.516;13.508;2022-11-18T01:12:53;24.80;;;12.80;;
69822;SDS011;57119;52.516;13.508;2022-11-18T01:15:41;25.85;;;13.38;;
69822;SDS011;57119;52.516;13.508;2022-11-18T01:18:08;25.52;;;13.10;;
69822;SDS011;57119;52.516;13.508;2022-11-18T01:20:34;23.45;;;12.73;;
69822;SDS011;57119;52.516;13.508;2022-11-18T01:23:00;24.75;;;12.25;;
69822;SDS011;57119;52.516;13.508;2022-11-18T01:25:26;24.03;;;12.87;;
69822;SDS011;57119;52.516;13.508;2022-11-18T01:27:52;24.35;;;12.77;;
69822;SDS011;57119;52.516;13.508;2022-11-18T01:30:17;23.97;;;12.37;;
69822;SDS011;57119;52.516;13.508;2022-11-18T01:32:43;24.63;;;12.47;;
69822;SDS011;57119;52.516;13.508;2022-11-18T01:35:09;25.38;;;12.88;;
69822;SDS011;57119;52.516;13.508;2022-11-18T01:37:36;25.38;;;12.32;;
69822;SDS011;57119;52.516;13.508;2022-11-18T01:40:02;25.00;;;12.80;;
69822;SDS011;57119;52.516;13.508;2022-11-18T01:42:32;22.95;;;12.50;;
69822;SDS011;57119;52.516;13.508;2022-11-18T01:47:39;26.53;;;13.00;;
69822;SDS011;57119;52.516;13.508;2022-11-18T01:50:12;22.92;;;12.43;;
69822;SDS011;57119;52.516;13.508;2022-11-18T01:52:40;25.38;;;12.43;;
69822;SDS011;57119;52.516;13.508;2022-11-18T01:55:07;23.90;;;12.63;;
69822;SDS011;57119;52.516;13.508;2022-11-18T01:57:38;25.25;;;12.80;;
69822;SDS011;57119;52.516;13.508;2022-11-18T02:00:05;23.60;;;12.48;;
69822;SDS011;57119;52.516;13.508;2022-11-18T02:02:32;27.27;;;13.40;;
69822;SDS011;57119;52.516;13.508;2022-11-18T02:05:01;27.55;;;13.32;;
69822;SDS011;57119;52.516;13.508;2022-11-18T02:07:29;24.50;;;12.07;;
69822;SDS011;57119;52.516;13.508;2022-11-18T02:09:58;25.40;;;13.10;;
69822;SDS011;57119;52.516;13.508;2022-11-18T02:12:27;24.08;;;12.98;;
69822;SDS011;57119;52.516;13.508;2022-11-18T02:14:53;25.25;;;12.50;;
69822;SDS011;57119;52.516;13.508;2022-11-18T02:28:36;27.27;;;12.70;;
69822;SDS011;57119;52.516;13.508;2022-11-18T02:31:18;23.77;;;12.10;;
69822;SDS011;57119;52.516;13.508;2022-11-18T02:34:01;23.48;;;12.02;;
69822;SDS011;57119;52.516;13.508;2022-11-18T02:39:04;26.17;;;12.68;;
69822;SDS011;57119;52.516;13.508;2022-11-18T02:41:33;23.52;;;11.50;;
69822;SDS011;57119;52.516;13.508;2022-11-18T02:44:04;24.77;;;12.32;;
69822;SDS011;57119;52.516;13.508;2022-11-18T02:46:36;24.20;;;12.27;;
69822;SDS011;57119;52.516;13.508;2022-11-18T02:49:06;24.95;;;11.75;;
69822;SDS011;57119;52.516;13.508;2022-11-18T02:51:34;26.05;;;13.48;;
69822;SDS011;57119;52.516;13.508;2022-11-18T02:54:04;26.80;;;13.40;;
69822;SDS011;57119;52.516;13.508;2022-11-18T02:56:32;24.73;;;12.35;;
69822;SDS011;57119;52.516;13.508;2022-11-18T02:58:59;27.65;;;12.90;;
69822;SDS011;57119;52.516;13.508;2022-11-18T03:01:25;26.83;;;12.83;;
69822;SDS011;57119;52.516;13.508;2022-11-18T03:03:54;26.58;;;12.57;;
69822;SDS011;57119;52.516;13.508;2022-11-18T03:06:36;26.95;;;13.68;;
69822;SDS011;57119;52.516;13.508;2022-11-18T03:09:07;27.48;;;12.43;;
69822;SDS011;57119;52.516;13.508;2022-11-18T03:17:39;27.88;;;13.82;;
69822;SDS011;57119;52.516;13.508;2022-11-18T03:25:58;26.77;;;13.43;;
69822;SDS011;57119;52.516;13.508;2022-11-18T03:36:46;31.20;;;14.48;;
69822;SDS011;57119;52.516;13.508;2022-11-18T03:39:14;29.65;;;14.20;;
69822;SDS011;57119;52.516;13.508;2022-11-18T03:41:44;28.55;;;13.70;;
69822;SDS011;57119;52.516;13.508;2022-11-18T03:44:16;30.45;;;15.50;;
69822;SDS011;57119;52.516;13.508;2022-11-18T03:46:46;28.08;;;14.25;;
69822;SDS011;57119;52.516;13.508;2022-11-18T03:49:28;31.98;;;14.88;;
69822;SDS011;57119;52.516;13.508;2022-11-18T03:52:00;28.98;;;14.10;;
69822;SDS011;57119;52.516;13.508;2022-11-18T03:54:31;34.67;;;16.52;;
69822;SDS011;57119;52.516;13.508;2022-11-18T03:57:01;30.38;;;15.00;;
69822;SDS011;57119;52.516;13.508;2022-11-18T04:04:42;31.60;;;14.80;;
69822;SDS011;57119;52.516;13.508;2022-11-18T04:07:11;30.40;;;14.85;;
69822;SDS011;57119;52.516;13.508;2022-11-18T04:09:41;34.17;;;15.38;;
69822;SDS011;57119;52.516;13.508;2022-11-18T04:12:12;33.78;;;16.38;;
69822;SDS011;57119;52.516;13.508;2022-11-18T04:14:41;38.95;;;16.85;;
69822;SDS011;57119;52.516;13.508;2022-11-18T04:17:12;30.42;;;14.55;;
69822;SDS011;57119;52.516;13.508;2022-11-18T04:19:39;31.20;;;14.88;;
69822;SDS011;57119;52.516;13.508;2022-11-18T04:22:05;33.70;;;15.73;;
69822;SDS011;57119;52.516;13.508;2022-11-18T04:24:31;36.47;;;16.20;;
69822;SDS011;57119;52.516;13.508;2022-11-18T04:26:56;35.17;;;16.30;;
69822;SDS011;57119;52.516;13.508;2022-11-18T04:29:22;34.30;;;15.83;;
69822;SDS011;57119;52.516;13.508;2022-11-18T04:31:47;38.07;;;16.87;;
69822;SDS011;57119;52.516;13.508;2022-11-18T04:34:13;37.77;;;16.73;;
69822;SDS011;57119;52.516;13.508;2022-11-18T04:36:38;36.30;;;16.57;;
69822;SDS011;57119;52.516;13.508;2022-11-18T04:39:04;36.90;;;16.83;;
69822;SDS011;57119;52.516;13.508;2022-11-18T04:41:29;39.47;;;15.70;;
69822;SDS011;57119;52.516;13.508;2022-11-18T04:44:14;38.78;;;17.15;;
69822;SDS011;57119;52.516;13.508;2022-11-18T04:46:40;37.27;;;16.70;;
69822;SDS011;57119;52.516;13.508;2022-11-18T04:49:07;38.30;;;16.40;;
69822;SDS011;57119;52.516;13.508;2022-11-18T04:51:32;39.88;;;18.45;;
69822;SDS011;57119;52.516;13.508;2022-11-18T04:53:58;41.07;;;18.70;;
69822;SDS011;57119;52.516;13.508;2022-11-18T04:56:26;40.75;;;18.23;;
69822;SDS011;57119;52.516;13.508;2022-11-18T04:58:52;38.93;;;17.37;;
69822;SDS011;57119;52.516;13.508;2022-11-18T05:01:17;39.90;;;18.58;;
69822;SDS011;57119;52.516;13.508;2022-11-18T05:03:42;45.37;;;20.23;;
69822;SDS011;57119;52.516;13.508;2022-11-18T05:06:08;42.87;;;19.80;;
69822;SDS011;57119;52.516;13.508;2022-11-18T05:08:33;42.03;;;18.67;;
69822;SDS011;57119;52.516;13.508;2022-11-18T05:10:59;39.93;;;18.70;;
69822;SDS011;57119;52.516;13.508;2022-11-18T05:13:44;40.92;;;18.60;;
69822;SDS011;57119;52.516;13.508;2022-11-18T05:16:10;41.87;;;18.87;;
69822;SDS011;57119;52.516;13.508;2022-11-18T05:18:35;39.37;;;18.10;;
69822;SDS011;57119;52.516;13.508;2022-11-18T05:21:04;40.15;;;17.60;;
69822;SDS011;57119;52.516;13.508;2022-11-18T05:23:30;41.90;;;18.80;;
69822;SDS011;57119;52.516;13.508;2022-11-18T05:25:55;39.78;;;17.00;;
69822;SDS011;57119;52.516;13.508;2022-11-18T05:28:20;40.20;;;17.53;;
69822;SDS011;57119;52.516;13.508;2022-11-18T05:30:46;36.73;;;17.70;;
69822;SDS011;57119;52.516;13.508;2022-11-18T05:33:11;37.47;;;16.40;;
69822;SDS011;57119;52.516;13.508;2022-11-18T05:35:37;36.78;;;16.95;;
69822;SDS011;57119;52.516;13.508;2022-11-18T05:38:02;34.33;;;16.45;;
69822;SDS011;57119;52.516;13.508;2022-11-18T05:40:27;36.77;;;16.40;;
69822;SDS011;57119;52.516;13.508;2022-11-18T05:42:53;38.87;;;17.03;;
69822;SDS011;57119;52.516;13.508;2022-11-18T05:45:39;33.05;;;15.63;;
69822;SDS011;57119;52.516;13.508;2022-11-18T05:48:05;36.40;;;16.40;;
69822;SDS011;57119;52.516;13.508;2022-11-18T05:50:33;38.72;;;17.35;;
69822;SDS011;57119;52.516;13.508;2022-11-18T05:53:00;34.00;;;16.77;;
69822;SDS011;57119;52.516;13.508;2022-11-18T05:55:27;32.40;;;14.93;;
69822;SDS011;57119;52.516;13.508;2022-11-18T05:57:57;33.28;;;15.07;;
69822;SDS011;57119;52.516;13.508;2022-11-18T06:00:23;29.33;;;13.50;;
69822;SDS011;57119;52.516;13.508;2022-11-18T06:02:48;31.33;;;15.70;;
69822;SDS011;57119;52.516;13.508;2022-11-18T06:05:18;31.27;;;14.50;;
69822;SDS011;57119;52.516;13.508;2022-11-18T06:07:46;28.85;;;13.27;;
69822;SDS011;57119;52.516;13.508;2022-11-18T06:10:12;30.57;;;14.07;;
69822;SDS011;57119;52.516;13.508;2022-11-18T06:12:42;27.98;;;13.82;;
69822;SDS011;57119;52.516;13.508;2022-11-18T06:15:20;29.27;;;14.68;;
69822;SDS011;57119;52.516;13.508;2022-11-18T06:17:55;29.63;;;12.88;;
69822;SDS011;57119;52.516;13.508;2022-11-18T06:20:25;27.38;;;13.50;;
69822;SDS011;57119;52.516;13.508;2022-11-18T06:22:52;26.65;;;12.45;;
69822;SDS011;57119;52.516;13.508;2022-11-18T06:25:20;23.90;;;11.93;;
69822;SDS011;57119;52.516;13.508;2022-11-18T06:27:47;27.75;;;12.82;;
69822;SDS011;57119;52.516;13.508;2022-11-18T06:30:14;24.13;;;11.70;;
69822;SDS011;57119;52.516;13.508;2022-11-18T06:32:39;28.42;;;12.52;;
69822;SDS011;57119;52.516;13.508;2022-11-18T06:35:05;26.08;;;12.07;;
69822;SDS011;57119;52.516;13.508;2022-11-18T06:37:31;27.33;;;11.73;;
69822;SDS011;57119;52.516;13.508;2022-11-18T06:39:57;26.37;;;11.67;;
69822;SDS011;57119;52.516;13.508;2022-11-18T06:42:22;27.20;;;12.47;;
69822;SDS011;57119;52.516;13.508;2022-11-18T06:45:06;23.90;;;11.35;;
69822;SDS011;57119;52.516;13.508;2022-11-18T06:47:32;25.58;;;11.32;;
69822;SDS011;57119;52.516;13.508;2022-11-18T06:49:57;25.67;;;12.37;;
69822;SDS011;57119;52.516;13.508;2022-11-18T06:52:23;28.10;;;12.47;;
69822;SDS011;57119;52.516;13.508;2022-11-18T06:54:49;25.15;;;12.90;;
69822;SDS011;57119;52.516;13.508;2022-11-18T06:57:14;32.42;;;11.73;;
69822;SDS011;57119;52.516;13.508;2022-11-18T06:59:40;24.00;;;11.10;;
69822;SDS011;57119;52.516;13.508;2022-11-18T07:02:05;26.20;;;12.03;;
69822;SDS011;57119;52.516;13.508;2022-11-18T07:04:30;25.70;;;11.83;;
69822;SDS011;57119;52.516;13.508;2022-11-18T07:06:57;25.83;;;11.75;;
69822;SDS011;57119;52.516;13.508;2022-11-18T07:09:23;26.00;;;12.33;;
69822;SDS011;57119;52.516;13.508;2022-11-18T07:11:48;26.17;;;11.85;;
69822;SDS011;57119;52.516;13.508;2022-11-18T07:14:14;26.60;;;11.47;;
69822;SDS011;57119;52.516;13.508;2022-11-18T07:16:39;23.67;;;11.23;;
69822;SDS011;57119;52.516;13.508;2022-11-18T07:19:11;23.37;;;12.10;;
69822;SDS011;57119;52.516;13.508;2022-11-18T07:21:38;25.52;;;13.13;;
69822;SDS011;57119;52.516;13.508;2022-11-18T07:24:07;26.63;;;12.38;;
69822;SDS011;57119;52.516;13.508;2022-11-18T07:26:35;23.65;;;12.15;;
69822;SDS011;57119;52.516;13.508;2022-11-18T07:29:00;35.93;;;13.17;;
69822;SDS011;57119;52.516;13.508;2022-11-18T07:31:26;25.07;;;11.77;;
69822;SDS011;57119;52.516;13.508;2022-11-18T07:33:52;25.92;;;12.07;;
69822;SDS011;57119;52.516;13.508;2022-11-18T07:36:21;28.35;;;12.98;;
69822;SDS011;57119;52.516;13.508;2022-11-18T07:38:48;25.67;;;12.15;;
69822;SDS011;57119;52.516;13.508;2022-11-18T07:41:18;24.10;;;11.75;;
69822;SDS011;57119;52.516;13.508;2022-11-18T07:43:48;25.25;;;12.15;;
69822;SDS011;57119;52.516;13.508;2022-11-18T07:48:47;27.73;;;12.40;;
69822;SDS011;57119;52.516;13.508;2022-11-18T07:51:14;27.02;;;12.30;;
69822;SDS011;57119;52.516;13.508;2022-11-18T07:53:41;27.80;;;12.30;;
69822;SDS011;57119;52.516;13.508;2022-11-18T07:56:07;24.43;;;12.87;;
69822;SDS011;57119;52.516;13.508;2022-11-18T07:58:34;27.63;;;12.82;;
69822;SDS011;57119;52.516;13.508;2022-11-18T08:01:09;27.23;;;12.80;;
69822;SDS011;57119;52.516;13.508;2022-11-18T08:03:37;27.05;;;11.85;;
69822;SDS011;57119;52.516;13.508;2022-11-18T08:06:03;25.85;;;11.32;;
69822;SDS011;57119;52.516;13.508;2022-11-18T08:08:30;25.13;;;11.65;;
69822;SDS011;57119;52.516;13.508;2022-11-18T08:10:57;26.92;;;11.70;;
69822;SDS011;57119;52.516;13.508;2022-11-18T08:13:24;22.70;;;10.98;;
69822;SDS011;57119;52.516;13.508;2022-11-18T08:15:50;25.15;;;11.30;;
69822;SDS011;57119;52.516;13.508;2022-11-18T08:18:16;25.25;;;12.00;;
69822;SDS011;57119;52.516;13.508;2022-11-18T08:20:42;24.17;;;11.65;;
69822;SDS011;57119;52.516;13.508;2022-11-18T08:23:09;23.40;;;10.80;;
69822;SDS011;57119;52.516;13.508;2022-11-18T08:25:35;20.83;;;11.03;;
69822;SDS011;57119;52.516;13.508;2022-11-18T08:28:00;23.15;;;11.60;;
69822;SDS011;57119;52.516;13.508;2022-11-18T08:30:25;22.40;;;11.67;;
69822;SDS011;57119;52.516;13.508;2022-11-18T08:32:51;25.47;;;12.97;;
69822;SDS011;57119;52.516;13.508;2022-11-18T08:35:16;26.00;;;12.93;;
69822;SDS011;57119;52.516;13.508;2022-11-18T08:37:42;24.60;;;11.70;;
69822;SDS011;57119;52.516;13.508;2022-11-18T08:40:07;22.98;;;11.90;;
69822;SDS011;57119;52.516;13.508;2022-11-18T08:42:33;22.75;;;11.52;;
69822;SDS011;57119;52.516;13.508;2022-11-18T08:44:59;24.75;;;13.05;;
69822;SDS011;57119;52.516;13.508;2022-11-18T08:47:25;25.33;;;12.83;;
69822;SDS011;57119;52.516;13.508;2022-11-18T08:49:50;28.88;;;12.18;;
69822;SDS011;57119;52.516;13.508;2022-11-18T08:52:15;21.45;;;10.98;;
69822;SDS011;57119;52.516;13.508;2022-11-18T08:54:41;21.50;;;10.87;;
69822;SDS011;57119;52.516;13.508;2022-11-18T08:57:06;25.83;;;11.97;;
69822;SDS011;57119;52.516;13.508;2022-11-18T08:59:32;23.80;;;12.02;;
69822;SDS011;57119;52.516;13.508;2022-11-18T09:01:57;25.95;;;11.27;;
69822;SDS011;57119;52.516;13.508;2022-11-18T09:04:23;27.73;;;11.73;;
69822;SDS011;57119;52.516;13.508;2022-11-18T09:06:48;25.10;;;12.40;;
69822;SDS011;57119;52.516;13.508;2022-11-18T09:09:14;25.33;;;13.30;;
69822;SDS011;57119;52.516;13.508;2022-11-18T09:11:39;27.85;;;12.48;;
69822;SDS011;57119;52.516;13.508;2022-11-18T09:14:05;23.33;;;12.10;;
69822;SDS011;57119;52.516;13.508;2022-11-18T09:16:31;25.53;;;12.57;;
69822;SDS011;57119;52.516;13.508;2022-11-18T09:18:58;26.10;;;11.82;;
69822;SDS011;57119;52.516;13.508;2022-11-18T09:21:23;22.17;;;9.93;;
69822;SDS011;57119;52.516;13.508;2022-11-18T09:23:50;22.02;;;10.27;;
69822;SDS011;57119;52.516;13.508;2022-11-18T09:26:16;21.65;;;9.90;;
69822;SDS011;57119;52.516;13.508;2022-11-18T09:28:44;22.10;;;9.63;;
69822;SDS011;57119;52.516;13.508;2022-11-18T09:31:11;19.20;;;9.90;;
69822;SDS011;57119;52.516;13.508;2022-11-18T09:33:38;18.17;;;8.93;;
69822;SDS011;57119;52.516;13.508;2022-11-18T09:36:05;17.07;;;8.67;;
69822;SDS011;57119;52.516;13.508;2022-11-18T09:38:35;19.80;;;8.65;;
69822;SDS011;57119;52.516;13.508;2022-11-18T09:41:06;17.83;;;8.90;;
69822;SDS011;57119;52.516;13.508;2022-11-18T09:43:52;17.40;;;8.18;;
69822;SDS011;57119;52.516;13.508;2022-11-18T09:49:33;17.25;;;8.68;;
69822;SDS011;57119;52.516;13.508;2022-11-18T09:52:01;19.20;;;9.00;;
69822;SDS011;57119;52.516;13.508;2022-11-18T09:54:31;17.50;;;7.93;;
69822;SDS011;57119;52.516;13.508;2022-11-18T09:56:59;17.98;;;8.70;;
69822;SDS011;57119;52.516;13.508;2022-11-18T09:59:26;13.13;;;6.32;;
69822;SDS011;57119;52.516;13.508;2022-11-18T10:01:55;13.02;;;6.70;;
69822;SDS011;57119;52.516;13.508;2022-11-18T10:04:42;13.53;;;5.93;;
69822;SDS011;57119;52.516;13.508;2022-11-18T10:07:19;12.18;;;5.65;;
69822;SDS011;57119;52.516;13.508;2022-11-18T10:09:49;11.70;;;5.25;;
69822;SDS011;57119;52.516;13.508;2022-11-18T10:20:47;12.13;;;6.22;;
69822;SDS011;57119;52.516;13.508;2022-11-18T10:23:28;12.27;;;5.80;;
69822;SDS011;57119;52.516;13.508;2022-11-18T10:25:59;12.25;;;5.82;;
69822;SDS011;57119;52.516;13.508;2022-11-18T10:28:25;11.50;;;6.00;;
69822;SDS011;57119;52.516;13.508;2022-11-18T10:30:53;11.98;;;6.13;;
69822;SDS011;57119;52.516;13.508;2022-11-18T10:33:29;13.05;;;5.65;;
69822;SDS011;57119;52.516;13.508;2022-11-18T10:38:41;13.57;;;6.53;;
69822;SDS011;57119;52.516;13.508;2022-11-18T10:41:09;12.50;;;5.68;;
69822;SDS011;57119;52.516;13.508;2022-11-18T10:43:48;10.90;;;5.32;;
69822;SDS011;57119;52.516;13.508;2022-11-18T10:51:34;11.43;;;5.63;;
69822;SDS011;57119;52.516;13.508;2022-11-18T10:54:07;14.27;;;6.00;;
69822;SDS011;57119;52.516;13.508;2022-11-18T10:59:31;11.23;;;5.50;;
69822;SDS011;57119;52.516;13.508;2022-11-18T11:04:36;12.30;;;5.63;;
69822;SDS011;57119;52.516;13.508;2022-11-18T11:10:00;13.50;;;6.20;;
69822;SDS011;57119;52.516;13.508;2022-11-18T11:12:41;12.45;;;5.90;;
69822;SDS011;57119;52.516;13.508;2022-11-18T11:15:13;13.45;;;6.38;;
69822;SDS011;57119;52.516;13.508;2022-11-18T11:17:57;13.77;;;6.20;;
69822;SDS011;57119;52.516;13.508;2022-11-18T11:20:43;13.63;;;6.75;;
69822;SDS011;57119;52.516;13.508;2022-11-18T11:23:09;13.23;;;6.00;;
69822;SDS011;57119;52.516;13.508;2022-11-18T11:28:07;12.50;;;5.90;;
69822;SDS011;57119;52.516;13.508;2022-11-18T11:30:44;13.07;;;6.30;;
69822;SDS011;57119;52.516;13.508;2022-11-18T11:33:21;13.60;;;6.30;;
69822;SDS011;57119;52.516;13.508;2022-11-18T11:38:43;14.25;;;6.13;;
69822;SDS011;57119;52.516;13.508;2022-11-18T11:41:38;11.85;;;5.50;;
69822;SDS011;57119;52.516;13.508;2022-11-18T11:47:06;12.68;;;6.22;;
69822;SDS011;57119;52.516;13.508;2022-11-18T11:50:00;12.85;;;5.93;;
69822;SDS011;57119;52.516;13.508;2022-11-18T11:52:45;12.02;;;5.50;;
69822;SDS011;57119;52.516;13.508;2022-11-18T11:58:03;13.03;;;6.07;;
69822;SDS011;57119;52.516;13.508;2022-11-18T12:00:39;11.77;;;6.13;;
69822;SDS011;57119;52.516;13.508;2022-11-18T12:05:58;11.65;;;5.63;;
69822;SDS011;57119;52.516;13.508;2022-11-18T12:08:25;10.77;;;5.50;;
69822;SDS011;57119;52.516;13.508;2022-11-18T12:19:16;10.30;;;5.28;;
69822;SDS011;57119;52.516;13.508;2022-11-18T12:26:41;10.40;;;5.00;;
69822;SDS011;57119;52.516;13.508;2022-11-18T12:29:42;11.73;;;5.03;;
69822;SDS011;57119;52.516;13.508;2022-11-18T12:32:35;9.55;;;4.75;;
69822;SDS011;57119;52.516;13.508;2022-11-18T12:35:23;8.88;;;4.70;;
69822;SDS011;57119;52.516;13.508;2022-11-18T12:40:29;11.40;;;5.03;;
69822;SDS011;57119;52.516;13.508;2022-11-18T12:42:55;10.30;;;5.20;;
69822;SDS011;57119;52.516;13.508;2022-11-18T12:53:54;8.77;;;4.72;;
69822;SDS011;57119;52.516;13.508;2022-11-18T12:56:23;10.60;;;5.67;;
69822;SDS011;57119;52.516;13.508;2022-11-18T12:58:52;9.40;;;5.75;;
69822;SDS011;57119;52.516;13.508;2022-11-18T13:01:23;9.63;;;6.40;;
69822;SDS011;57119;52.516;13.508;2022-11-18T13:04:15;9.68;;;6.00;;
69822;SDS011;57119;52.516;13.508;2022-11-18T13:06:43;9.48;;;6.03;;
69822;SDS011;57119;52.516;13.508;2022-11-18T13:09:14;9.07;;;5.57;;
69822;SDS011;57119;52.516;13.508;2022-11-18T13:11:44;9.23;;;5.60;;
69822;SDS011;57119;52.516;13.508;2022-11-18T13:14:19;8.57;;;4.88;;
69822;SDS011;57119;52.516;13.508;2022-11-18T13:20:21;8.55;;;4.60;;
69822;SDS011;57119;52.516;13.508;2022-11-18T13:22:52;10.40;;;5.17;;
69822;SDS011;57119;52.516;13.508;2022-11-18T13:25:37;10.30;;;5.00;;
69822;SDS011;57119;52.516;13.508;2022-11-18T13:30:35;10.50;;;4.43;;
69822;SDS011;57119;52.516;13.508;2022-11-18T13:33:08;12.32;;;4.90;;
69822;SDS011;57119;52.516;13.508;2022-11-18T13:35:35;10.93;;;4.93;;
69822;SDS011;57119;52.516;13.508;2022-11-18T13:38:04;10.55;;;4.88;;
69822;SDS011;57119;52.516;13.508;2022-11-18T13:40:42;8.93;;;4.40;;
69822;SDS011;57119;52.516;13.508;2022-11-18T13:43:28;8.48;;;4.35;;
69822;SDS011;57119;52.516;13.508;2022-11-18T13:45:54;10.20;;;4.40;;
69822;SDS011;57119;52.516;13.508;2022-11-18T13:48:19;9.27;;;4.60;;
69822;SDS011;57119;52.516;13.508;2022-11-18T13:50:49;10.07;;;4.57;;
69822;SDS011;57119;52.516;13.508;2022-11-18T13:53:37;9.73;;;4.05;;
69822;SDS011;57119;52.516;13.508;2022-11-18T13:56:06;8.65;;;4.20;;
69822;SDS011;57119;52.516;13.508;2022-11-18T13:58:40;9.13;;;4.20;;
69822;SDS011;57119;52.516;13.508;2022-11-18T14:01:14;9.32;;;4.20;;
69822;SDS011;57119;52.516;13.508;2022-11-18T14:06:08;9.03;;;4.17;;
69822;SDS011;57119;52.516;13.508;2022-11-18T14:08:35;9.25;;;4.03;;
69822;SDS011;57119;52.516;13.508;2022-11-18T14:11:02;9.45;;;4.22;;
69822;SDS011;57119;52.516;13.508;2022-11-18T14:13:30;9.48;;;4.22;;
69822;SDS011;57119;52.516;13.508;2022-11-18T14:16:02;9.57;;;4.23;;
69822;SDS011;57119;52.516;13.508;2022-11-18T14:18:44;8.82;;;4.43;;
69822;SDS011;57119;52.516;13.508;2022-11-18T14:21:11;8.95;;;4.50;;
69822;SDS011;57119;52.516;13.508;2022-11-18T14:23:40;9.70;;;4.25;;
69822;SDS011;57119;52.516;13.508;2022-11-18T14:26:07;9.68;;;3.92;;
69822;SDS011;57119;52.516;13.508;2022-11-18T14:28:34;8.97;;;4.17;;
69822;SDS011;57119;52.516;13.508;2022-11-18T14:34:02;8.65;;;4.40;;
69822;SDS011;57119;52.516;13.508;2022-11-18T14:36:27;11.15;;;4.40;;
69822;SDS011;57119;52.516;13.508;2022-11-18T14:38:53;9.87;;;4.40;;
69822;SDS011;57119;52.516;13.508;2022-11-18T14:41:20;8.98;;;4.50;;
69822;SDS011;57119;52.516;13.508;2022-11-18T14:44:04;9.93;;;4.25;;
69822;SDS011;57119;52.516;13.508;2022-11-18T14:46:30;9.10;;;4.10;;
69822;SDS011;57119;52.516;13.508;2022-11-18T14:48:57;9.10;;;4.47;;
69822;SDS011;57119;52.516;13.508;2022-11-18T14:51:25;9.05;;;4.03;;
69822;SDS011;57119;52.516;13.508;2022-11-18T14:53:50;8.53;;;3.47;;
69822;SDS011;57119;52.516;13.508;2022-11-18T14:56:26;7.70;;;3.40;;
69822;SDS011;57119;52.516;13.508;2022-11-18T14:58:53;8.90;;;3.58;;
69822;SDS011;57119;52.516;13.508;2022-11-18T15:01:18;9.93;;;4.27;;
69822;SDS011;57119;52.516;13.508;2022-11-18T15:03:44;8.80;;;4.10;;
69822;SDS011;57119;52.516;13.508;2022-11-18T15:06:13;10.30;;;3.50;;
69822;SDS011;57119;52.516;13.508;2022-11-18T15:08:39;8.20;;;3.42;;
69822;SDS011;57119;52.516;13.508;2022-11-18T15:11:06;8.00;;;3.35;;
69822;SDS011;57119;52.516;13.508;2022-11-18T15:13:32;8.13;;;2.97;;
69822;SDS011;57119;52.516;13.508;2022-11-18T15:15:57;8.47;;;3.83;;
69822;SDS011;57119;52.516;13.508;2022-11-18T15:18:23;7.30;;;3.33;;
69822;SDS011;57119;52.516;13.508;2022-11-18T15:20:49;7.20;;;3.17;;
69822;SDS011;57119;52.516;13.508;2022-11-18T15:23:15;9.15;;;3.08;;
69822;SDS011;57119;52.516;13.508;2022-11-18T15:25:41;7.87;;;3.63;;
69822;SDS011;57119;52.516;13.508;2022-11-18T15:28:08;8.65;;;3.88;;
69822;SDS011;57119;52.516;13.508;2022-11-18T15:30:34;8.13;;;3.27;;
69822;SDS011;57119;52.516;13.508;2022-11-18T15:33:00;7.65;;;3.10;;
69822;SDS011;57119;52.516;13.508;2022-11-18T15:35:25;9.63;;;3.73;;
69822;SDS011;57119;52.516;13.508;2022-11-18T15:37:50;8.37;;;3.30;;
69822;SDS011;57119;52.516;13.508;2022-11-18T15:40:16;9.63;;;3.90;;
69822;SDS011;57119;52.516;13.508;2022-11-18T15:42:41;9.18;;;3.90;;
69822;SDS011;57119;52.516;13.508;2022-11-18T15:45:07;7.70;;;3.50;;
69822;SDS011;57119;52.516;13.508;2022-11-18T15:47:32;8.40;;;3.63;;
69822;SDS011;57119;52.516;13.508;2022-11-18T15:49:57;8.97;;;3.80;;
69822;SDS011;57119;52.516;13.508;2022-11-18T15:52:23;9.17;;;3.53;;
69822;SDS011;57119;52.516;13.508;2022-11-18T15:54:48;9.55;;;3.38;;
69822;SDS011;57119;52.516;13.508;2022-11-18T15:57:14;7.10;;;3.10;;
69822;SDS011;57119;52.516;13.508;2022-11-18T15:59:39;8.87;;;4.27;;
69822;SDS011;57119;52.516;13.508;2022-11-18T16:02:04;7.63;;;3.40;;
69822;SDS011;57119;52.516;13.508;2022-11-18T16:04:31;7.45;;;3.25;;
69822;SDS011;57119;52.516;13.508;2022-11-18T16:06:57;9.07;;;3.63;;
69822;SDS011;57119;52.516;13.508;2022-11-18T16:09:24;9.63;;;3.70;;
69822;SDS011;57119;52.516;13.508;2022-11-18T16:12:09;10.85;;;3.60;;
69822;SDS011;57119;52.516;13.508;2022-11-18T16:14:53;7.55;;;3.47;;
69822;SDS011;57119;52.516;13.508;2022-11-18T16:17:38;8.63;;;3.70;;
69822;SDS011;57119;52.516;13.508;2022-11-18T16:20:03;7.67;;;3.67;;
69822;SDS011;57119;52.516;13.508;2022-11-18T16:22:29;9.32;;;3.72;;
69822;SDS011;57119;52.516;13.508;2022-11-18T16:24:54;8.20;;;3.47;;
69822;SDS011;57119;52.516;13.508;2022-11-18T16:27:20;12.50;;;4.30;;
69822;SDS011;57119;52.516;13.508;2022-11-18T16:29:45;8.97;;;3.97;;
69822;SDS011;57119;52.516;13.508;2022-11-18T16:32:11;10.00;;;4.18;;